createdAt,value
2023-04-04T00:01:40.241Z,4.20
2023-04-04T00:04:43.436Z,4.20
2023-04-04T00:07:49.404Z,4.20
2023-04-04T00:10:58.051Z,4.10
2023-04-04T00:14:02.626Z,4.10
2023-04-04T00:17:05.819Z,4.10
2023-04-04T00:20:09.632Z,4.00
2023-04-04T00:23:14.228Z,4.00
2023-04-04T00:26:17.592Z,4.00
2023-04-04T00:29:20.766Z,4.00
2023-04-04T00:32:24.061Z,4.00
2023-04-04T00:35:27.360Z,3.90
2023-04-04T00:38:31.995Z,3.90
2023-04-04T00:41:35.998Z,3.90
2023-04-04T00:44:39.239Z,3.90
2023-04-04T00:47:44.539Z,3.90
2023-04-04T00:50:47.898Z,3.80
2023-04-04T00:53:53.401Z,3.80
2023-04-04T00:56:56.673Z,3.80
2023-04-04T01:00:02.878Z,3.70
2023-04-04T01:03:07.938Z,3.70
2023-04-04T01:06:11.383Z,3.70
2023-04-04T01:09:16.343Z,3.60
2023-04-04T01:12:20.182Z,3.60
2023-04-04T01:15:23.383Z,3.50
2023-04-04T01:18:27.586Z,3.40
2023-04-04T01:21:31.365Z,3.40
2023-04-04T01:24:37.237Z,3.40
2023-04-04T01:27:41.892Z,3.40
2023-04-04T01:30:46.476Z,3.30
2023-04-04T01:33:56.901Z,3.30
2023-04-04T01:37:06.640Z,3.30
2023-04-04T01:40:17.711Z,3.30
2023-04-04T01:43:22.415Z,3.30
2023-04-04T01:46:25.786Z,3.30
2023-04-04T01:49:29.033Z,3.20
2023-04-04T01:52:32.264Z,3.20
2023-04-04T01:55:35.434Z,3.20
2023-04-04T01:58:40.083Z,3.20
2023-04-04T02:01:43.827Z,3.10
2023-04-04T02:04:47.734Z,3.20
2023-04-04T02:07:51.398Z,3.10
2023-04-04T02:10:54.531Z,3.10
2023-04-04T02:13:59.049Z,3.10
2023-04-04T02:17:02.204Z,3.20
2023-04-04T02:20:05.814Z,3.10
2023-04-04T02:23:09.254Z,3.10
2023-04-04T02:26:12.406Z,3.10
2023-04-04T02:29:17.081Z,3.10
2023-04-04T02:32:20.253Z,3.10
2023-04-04T02:35:23.374Z,3.10
2023-04-04T02:38:26.884Z,3.10
2023-04-04T02:41:30.029Z,3.10
2023-04-04T02:44:34.524Z,3.10
2023-04-04T02:47:37.864Z,3.10
2023-04-04T02:50:41.272Z,3.00
2023-04-04T02:53:44.561Z,3.00
2023-04-04T02:56:47.714Z,3.10
2023-04-04T02:59:52.462Z,3.00
2023-04-04T03:02:56.482Z,3.00
2023-04-04T03:06:00.881Z,3.10
2023-04-04T03:09:05.044Z,3.10
2023-04-04T03:12:09.085Z,3.00
2023-04-04T03:15:14.575Z,3.00
2023-04-04T03:18:17.775Z,3.00
2023-04-04T03:21:20.976Z,3.00
2023-04-04T03:24:24.230Z,3.00
2023-04-04T03:27:27.465Z,3.00
2023-04-04T03:30:31.986Z,3.00
2023-04-04T03:33:37.889Z,3.00
2023-04-04T03:36:41.026Z,3.00
2023-04-04T03:39:44.229Z,2.90
2023-04-04T03:42:47.363Z,3.00
2023-04-04T03:45:51.905Z,2.90
2023-04-04T03:48:55.053Z,2.90
2023-04-04T03:51:58.214Z,2.90
2023-04-04T03:55:01.342Z,2.90
2023-04-04T03:58:04.664Z,2.90
2023-04-04T04:01:09.237Z,2.90
2023-04-04T04:04:12.444Z,2.80
2023-04-04T04:07:15.590Z,2.90
2023-04-04T04:10:18.922Z,2.90
2023-04-04T04:13:23.016Z,2.80
2023-04-04T04:16:27.989Z,2.90
2023-04-04T04:19:31.292Z,2.90
2023-04-04T04:22:34.452Z,2.90
2023-04-04T04:25:37.875Z,2.80
2023-04-04T04:28:41.008Z,2.80
2023-04-04T04:31:45.622Z,2.90
2023-04-04T04:34:49.167Z,2.80
2023-04-04T04:37:52.513Z,2.80
2023-04-04T04:40:55.655Z,2.80
2023-04-04T04:43:58.799Z,2.90
2023-04-04T04:47:05.166Z,2.80
2023-04-04T04:50:09.402Z,2.80
2023-04-04T04:53:12.537Z,2.90
2023-04-04T04:56:15.685Z,2.80
2023-04-04T04:59:18.991Z,2.80
2023-04-04T05:02:23.692Z,2.70
2023-04-04T05:05:27.087Z,2.80
2023-04-04T05:08:30.506Z,2.80
2023-04-04T05:11:33.769Z,2.80
2023-04-04T05:14:37.639Z,2.80
2023-04-04T05:17:42.182Z,2.80
2023-04-04T05:20:45.503Z,2.80
2023-04-04T05:23:48.673Z,2.80
2023-04-04T05:26:51.802Z,2.90
2023-04-04T05:29:55.022Z,2.90
2023-04-04T05:32:59.550Z,2.90
2023-04-04T05:36:03.011Z,3.00
2023-04-04T05:39:06.366Z,3.10
2023-04-04T05:42:09.442Z,3.00
2023-04-04T05:45:12.905Z,3.10
2023-04-04T05:48:17.407Z,3.30
2023-04-04T05:51:20.565Z,3.40
2023-04-04T05:54:23.790Z,3.40
2023-04-04T05:57:26.954Z,3.40
2023-04-04T06:00:31.121Z,3.50
2023-04-04T06:03:35.849Z,3.60
2023-04-04T06:06:39.153Z,3.70
2023-04-04T06:09:42.313Z,3.80
2023-04-04T06:12:45.589Z,3.90
2023-04-04T06:15:48.864Z,4.00
2023-04-04T06:18:53.439Z,4.10
2023-04-04T06:21:56.673Z,4.20
2023-04-04T06:24:59.806Z,4.40
2023-04-04T06:28:03.657Z,4.70
2023-04-04T06:31:08.889Z,5.30
2023-04-04T06:34:13.404Z,6.20
2023-04-04T06:37:16.542Z,7.60
2023-04-04T06:40:19.682Z,8.70
2023-04-04T06:43:22.838Z,9.60
2023-04-04T06:46:27.149Z,10.40
2023-04-04T06:49:31.701Z,10.90
2023-04-04T06:52:34.925Z,11.90
2023-04-04T06:55:38.655Z,12.90
2023-04-04T06:58:42.151Z,13.00
2023-04-04T07:01:45.641Z,12.90
2023-04-04T07:04:50.180Z,13.60
2023-04-04T07:07:54.680Z,15.20
2023-04-04T07:10:58.102Z,15.80
2023-04-04T07:14:01.636Z,16.30
2023-04-04T07:17:13.675Z,17.60
2023-04-04T07:20:27.076Z,18.90
2023-04-04T07:23:30.290Z,19.80
2023-04-04T07:26:35.123Z,20.10
2023-04-04T07:29:38.262Z,21.10
2023-04-04T07:32:41.542Z,22.10
2023-04-04T07:35:46.133Z,22.20
2023-04-04T07:38:49.356Z,22.10
2023-04-04T07:41:52.485Z,22.70
2023-04-04T07:44:55.600Z,23.70
2023-04-04T07:47:59.516Z,24.60
2023-04-04T07:51:05.665Z,25.40
2023-04-04T07:54:09.060Z,26.30
2023-04-04T07:57:12.413Z,25.50
2023-04-04T08:00:17.685Z,24.90
2023-04-04T08:03:20.966Z,25.50
2023-04-04T08:06:25.748Z,26.00
2023-04-04T08:09:31.448Z,25.30
2023-04-04T08:12:34.597Z,25.10
2023-04-04T08:15:37.750Z,25.30
2023-04-04T08:18:40.985Z,25.90
2023-04-04T08:21:45.704Z,26.20
2023-04-04T08:24:48.801Z,27.00
2023-04-04T08:27:52.315Z,26.60
2023-04-04T08:30:55.716Z,27.80
2023-04-04T08:33:58.875Z,29.00
2023-04-04T08:37:03.446Z,30.00
2023-04-04T08:40:07.853Z,31.10
2023-04-04T08:43:13.682Z,31.40
2023-04-04T08:46:17.719Z,29.90
2023-04-04T08:49:22.445Z,29.00
2023-04-04T08:52:29.608Z,29.10
2023-04-04T08:55:32.829Z,31.40
2023-04-04T08:58:39.032Z,32.00
2023-04-04T09:01:42.351Z,32.20
2023-04-04T09:04:54.623Z,33.20
2023-04-04T09:08:08.491Z,34.00
2023-04-04T09:11:13.083Z,35.90
2023-04-04T09:14:16.384Z,33.50
2023-04-04T09:17:19.563Z,33.30
2023-04-04T09:20:39.088Z,33.30
2023-04-04T09:23:44.750Z,33.40
2023-04-04T09:26:52.348Z,34.20
2023-04-04T09:29:56.273Z,33.50
2023-04-04T09:33:02.605Z,34.70
2023-04-04T09:36:10.384Z,36.30
2023-04-04T09:39:16.761Z,37.40
2023-04-04T09:42:20.450Z,37.60
2023-04-04T09:45:32.401Z,37.20
2023-04-04T09:48:37.129Z,36.50
2023-04-04T09:51:42.601Z,35.10
2023-04-04T09:54:56.878Z,35.80
2023-04-04T09:58:02.667Z,36.10
2023-04-04T10:01:09.955Z,35.40
2023-04-04T10:04:14.574Z,33.80
2023-04-04T10:07:17.815Z,32.80
2023-04-04T10:10:22.504Z,30.80
2023-04-04T10:13:28.249Z,28.20
2023-04-04T10:16:34.539Z,26.30
2023-04-04T10:19:39.704Z,24.30
2023-04-04T10:22:45.470Z,22.50
2023-04-04T10:25:50.055Z,21.40
2023-04-04T10:28:53.445Z,20.60
2023-04-04T10:32:03.521Z,19.80
2023-04-04T10:35:10.998Z,18.80
2023-04-04T10:38:14.875Z,17.80
2023-04-04T10:41:20.839Z,17.10
2023-04-04T10:44:29.424Z,16.70
2023-04-04T10:47:33.315Z,16.40
2023-04-04T10:50:37.378Z,16.20
2023-04-04T10:53:42.127Z,16.10
2023-04-04T10:56:47.421Z,15.50
2023-04-04T10:59:58.217Z,15.00
2023-04-04T11:03:02.611Z,15.10
2023-04-04T11:06:15.926Z,15.00
2023-04-04T11:09:51.534Z,15.00
2023-04-04T11:13:11.293Z,14.70
2023-04-04T11:16:21.317Z,14.50
2023-04-04T11:19:25.561Z,14.50
2023-04-04T11:22:28.800Z,14.60
2023-04-04T11:25:42.989Z,14.40
2023-04-04T11:28:48.566Z,14.40
2023-04-04T11:31:52.420Z,14.20
2023-04-04T11:34:58.854Z,13.80
2023-04-04T11:38:03.899Z,13.50
2023-04-04T11:41:10.502Z,13.50
2023-04-04T11:44:16.410Z,13.50
2023-04-04T11:47:22.196Z,13.60
2023-04-04T11:50:25.579Z,13.90
2023-04-04T11:53:32.459Z,14.30
2023-04-04T11:56:37.320Z,14.60
2023-04-04T11:59:42.852Z,14.70
2023-04-04T12:02:46.154Z,14.80
2023-04-04T12:05:50.982Z,14.80
2023-04-04T12:08:54.234Z,14.70
2023-04-04T12:11:58.741Z,14.60
2023-04-04T12:15:16.636Z,14.50
2023-04-04T12:18:24.082Z,14.20
2023-04-04T12:21:27.428Z,14.20
2023-04-04T12:24:30.770Z,14.30
2023-04-04T12:27:34.994Z,14.40
2023-04-04T12:30:39.945Z,14.50
2023-04-04T12:33:43.542Z,14.60
2023-04-04T12:36:49.095Z,14.70
2023-04-04T12:39:52.443Z,15.10
2023-04-04T12:42:56.639Z,15.20
2023-04-04T12:46:01.444Z,15.20
2023-04-04T12:49:06.555Z,15.20
2023-04-04T12:52:19.702Z,15.00
2023-04-04T12:55:24.973Z,15.00
2023-04-04T12:58:28.466Z,14.90
2023-04-04T13:01:33.797Z,14.80
2023-04-04T13:04:37.949Z,14.80
2023-04-04T13:07:44.468Z,14.90
2023-04-04T13:11:02.916Z,15.00
2023-04-04T13:14:06.139Z,15.00
2023-04-04T13:17:10.953Z,14.70
2023-04-04T13:20:15.659Z,14.30
2023-04-04T13:23:19.552Z,14.40
2023-04-04T13:26:23.305Z,13.90
2023-04-04T13:29:26.936Z,13.60
2023-04-04T13:32:31.582Z,13.60
2023-04-04T13:35:34.805Z,13.60
2023-04-04T13:38:38.341Z,13.50
2023-04-04T13:41:41.556Z,13.30
2023-04-04T13:44:44.839Z,13.10
2023-04-04T13:47:49.497Z,13.10
2023-04-04T13:50:54.091Z,13.10
2023-04-04T13:53:57.211Z,12.90
2023-04-04T13:57:00.359Z,12.90
2023-04-04T14:00:05.002Z,13.00
2023-04-04T14:03:10.070Z,13.00
2023-04-04T14:06:13.580Z,13.10
2023-04-04T14:09:16.742Z,13.20
2023-04-04T14:12:20.071Z,13.20
2023-04-04T14:15:24.251Z,13.10
2023-04-04T14:18:28.837Z,13.10
2023-04-04T14:21:32.103Z,13.10
2023-04-04T14:24:35.281Z,12.90
2023-04-04T14:27:38.387Z,12.70
2023-04-04T14:30:41.546Z,12.60
2023-04-04T14:33:46.093Z,12.60
2023-04-04T14:36:49.575Z,12.60
2023-04-04T14:39:52.950Z,12.40
2023-04-04T14:42:56.219Z,12.20
2023-04-04T14:45:59.396Z,12.00
2023-04-04T14:49:06.319Z,12.00
2023-04-04T14:52:09.612Z,11.90
2023-04-04T14:55:12.735Z,11.90
2023-04-04T14:58:16.530Z,11.80
2023-04-04T15:01:21.472Z,11.50
2023-04-04T15:04:26.300Z,11.30
2023-04-04T15:07:29.465Z,11.20
2023-04-04T15:10:32.613Z,11.20
2023-04-04T15:13:36.393Z,11.30
2023-04-04T15:16:39.611Z,11.20
2023-04-04T15:19:44.158Z,11.00
2023-04-04T15:22:47.413Z,11.00
2023-04-04T15:25:50.609Z,11.00
2023-04-04T15:28:53.719Z,11.10
2023-04-04T15:31:56.781Z,11.20
2023-04-04T15:35:03.669Z,11.20
2023-04-04T15:38:06.837Z,11.30
2023-04-04T15:41:10.893Z,11.30
2023-04-04T15:44:14.023Z,11.40
2023-04-04T15:47:17.955Z,11.40
2023-04-04T15:50:22.583Z,11.40
2023-04-04T15:53:25.826Z,11.40
2023-04-04T15:56:29.011Z,11.20
2023-04-04T15:59:33.388Z,11.00
2023-04-04T16:02:36.746Z,10.90
2023-04-04T16:05:41.461Z,11.00
2023-04-04T16:08:44.997Z,10.80
2023-04-04T16:11:48.272Z,10.80
2023-04-04T16:14:51.457Z,10.70
2023-04-04T16:17:58.733Z,10.60
2023-04-04T16:21:05.806Z,10.60
2023-04-04T16:24:09.434Z,10.40
2023-04-04T16:27:13.075Z,10.20
2023-04-04T16:30:16.625Z,10.10
2023-04-04T16:33:19.936Z,10.00
2023-04-04T16:36:24.599Z,10.00
2023-04-04T16:39:27.781Z,9.80
2023-04-04T16:42:31.092Z,9.80
2023-04-04T16:45:34.432Z,9.70
2023-04-04T16:48:37.613Z,9.60
2023-04-04T16:51:42.145Z,9.60
2023-04-04T16:54:45.370Z,9.50
2023-04-04T16:57:48.737Z,9.30
2023-04-04T17:00:51.912Z,9.20
2023-04-04T17:03:55.144Z,9.10
2023-04-04T17:06:59.739Z,9.00
2023-04-04T17:10:03.023Z,8.90
2023-04-04T17:13:06.496Z,8.90
2023-04-04T17:16:10.207Z,8.90
2023-04-04T17:19:13.533Z,8.80
2023-04-04T17:22:18.216Z,8.80
2023-04-04T17:25:26.971Z,8.80
2023-04-04T17:28:30.180Z,8.70
2023-04-04T17:31:34.051Z,8.70
2023-04-04T17:34:37.304Z,8.60
2023-04-04T17:37:42.105Z,8.60
2023-04-04T17:40:45.643Z,8.50
2023-04-04T17:43:49.480Z,8.50
2023-04-04T17:46:53.072Z,8.30
2023-04-04T17:49:58.771Z,8.20
2023-04-04T17:53:03.788Z,8.00
2023-04-04T17:56:07.151Z,8.00
2023-04-04T17:59:12.851Z,7.90
2023-04-04T18:02:16.684Z,7.90
2023-04-04T18:05:20.495Z,7.80
2023-04-04T18:08:25.026Z,7.70
2023-04-04T18:11:30.214Z,7.70
2023-04-04T18:14:33.768Z,7.60
2023-04-04T18:17:37.860Z,7.50
2023-04-04T18:20:41.684Z,7.50
2023-04-04T18:23:46.279Z,7.50
2023-04-04T18:26:52.248Z,7.50
2023-04-04T18:29:56.352Z,7.40
2023-04-04T18:32:59.927Z,7.40
2023-04-04T18:36:05.290Z,7.30
2023-04-04T18:39:10.188Z,7.30
2023-04-04T18:42:14.094Z,7.20
2023-04-04T18:45:18.386Z,7.30
2023-04-04T18:48:25.050Z,7.30
2023-04-04T18:51:29.095Z,7.20
2023-04-04T18:54:33.884Z,7.10
2023-04-04T18:57:38.707Z,7.10
2023-04-04T19:00:42.967Z,7.20
2023-04-04T19:03:48.617Z,7.20
2023-04-04T19:06:54.395Z,7.30
2023-04-04T19:09:59.710Z,7.30
2023-04-04T19:13:03.527Z,7.30
2023-04-04T19:16:11.062Z,7.40
2023-04-04T19:19:15.325Z,7.40
2023-04-04T19:22:20.568Z,7.30
2023-04-04T19:25:26.534Z,7.30
2023-04-04T19:28:31.116Z,7.20
2023-04-04T19:31:36.386Z,7.20
2023-04-04T19:34:40.348Z,7.20
2023-04-04T19:37:45.625Z,7.20
2023-04-04T19:40:52.905Z,7.10
2023-04-04T19:43:56.497Z,7.10
2023-04-04T19:47:01.416Z,7.00
2023-04-04T19:50:08.211Z,7.00
2023-04-04T19:53:22.792Z,6.90
2023-04-04T19:56:28.989Z,6.80
2023-04-04T20:00:01.959Z,6.80
2023-04-04T20:03:08.979Z,6.70
2023-04-04T20:06:14.275Z,6.70
2023-04-04T20:09:35.029Z,6.60
2023-04-04T20:12:40.498Z,6.60
2023-04-04T20:16:02.182Z,6.60
2023-04-04T20:19:08.374Z,6.50
2023-04-04T20:22:12.785Z,6.50
2023-04-04T20:25:41.144Z,6.40
2023-04-04T20:28:48.786Z,6.30
2023-04-04T20:31:54.307Z,6.30
2023-04-04T20:34:58.735Z,6.20
2023-04-04T20:38:01.851Z,6.20
2023-04-04T20:41:25.286Z,6.10
2023-04-04T20:44:30.173Z,6.00
2023-04-04T20:47:43.260Z,6.00
2023-04-04T20:50:47.502Z,5.90
2023-04-04T20:53:50.911Z,5.90
2023-04-04T20:56:55.519Z,5.90
2023-04-04T21:00:00.058Z,5.80
2023-04-04T21:03:24.295Z,5.80
2023-04-04T21:06:31.079Z,5.80
2023-04-04T21:09:34.400Z,5.80
2023-04-04T21:12:37.623Z,5.80
2023-04-04T21:15:42.247Z,5.70
2023-04-04T21:18:46.105Z,5.70
2023-04-04T21:21:49.329Z,5.50
2023-04-04T21:24:52.475Z,5.50
2023-04-04T21:27:57.020Z,5.50
2023-04-04T21:31:02.368Z,5.50
2023-04-04T21:34:10.700Z,5.40
2023-04-04T21:37:16.977Z,5.40
2023-04-04T21:40:20.118Z,5.30
2023-04-04T21:43:23.206Z,5.30
2023-04-04T21:46:29.102Z,5.30
2023-04-04T21:49:32.373Z,5.30
2023-04-04T21:52:35.524Z,5.20
2023-04-04T21:55:38.742Z,5.20
2023-04-04T21:58:41.943Z,5.10
2023-04-04T22:01:46.535Z,5.20
2023-04-04T22:04:49.822Z,5.10
2023-04-04T22:07:53.010Z,4.90
2023-04-04T22:14:07.491Z,5.00
2023-04-04T22:17:22.844Z,4.90
2023-04-04T22:20:25.978Z,4.90
2023-04-04T22:23:35.697Z,4.80
2023-04-04T22:26:41.809Z,4.80
2023-04-04T22:29:45.017Z,4.70
2023-04-04T22:32:49.552Z,4.70
2023-04-04T22:35:53.396Z,4.70
2023-04-04T22:38:58.139Z,4.60
2023-04-04T22:42:01.614Z,4.60
2023-04-04T22:45:05.466Z,4.50
2023-04-04T22:48:10.240Z,4.50
2023-04-04T22:51:14.941Z,4.50
2023-04-04T22:54:18.325Z,4.50
2023-04-04T22:57:21.422Z,4.40
2023-04-04T23:00:24.619Z,4.30
2023-04-04T23:03:29.148Z,4.30
2023-04-04T23:06:32.599Z,4.30
2023-04-04T23:09:35.859Z,4.30
2023-04-04T23:12:39.580Z,4.20
2023-04-04T23:15:45.104Z,4.20
2023-04-04T23:18:49.661Z,4.20
2023-04-04T23:21:53.922Z,4.10
2023-04-04T23:24:57.121Z,4.00
2023-04-04T23:28:00.471Z,4.00
2023-04-04T23:31:03.774Z,3.90
2023-04-04T23:34:08.421Z,3.90
2023-04-04T23:37:11.510Z,3.90
2023-04-04T23:40:14.793Z,3.90
2023-04-04T23:43:17.929Z,3.90
2023-04-04T23:46:21.397Z,3.90
2023-04-04T23:49:26.023Z,3.90
2023-04-04T23:52:29.144Z,3.90
2023-04-04T23:55:32.343Z,3.80
2023-04-04T23:58:35.482Z,3.80
